SBKP/CPQ METAR and TAF weather

Enter ICAO airport designator
Station Type Date Time Source
SBKP METAR 2022/11/30 11:00 UTC NOAA

SBKP 301100Z 12005KT CAVOK 21/18 Q1008


Station Type Date Time Source
SBKP Decoded METAR 2022/11/30 11:00 UTC NOAA

Campinas Aeroporto , Brazil (SBKP) 23-00S 047-08W 661M
Nov 30, 2022 - 06:00 AM EST / 2022.11.30 1100 UTC
Wind: from the ESE (120 degrees) at 6 MPH (5 KT):0
Visibility: greater than 7 mile(s):0
Temperature: 69 F (21 C)
Dew Point: 64 F (18 C)
Relative Humidity: 82%
Pressure (altimeter): 29.77 in. Hg (1008 hPa)
ob: SBKP 301100Z 12005KT CAVOK 21/18 Q1008
cycle: 11

Station Type Date Time Source
SBKP TAF 2022/11/30 12:57 UTC NOAA

TAF SBKP 300850Z 3012/0112 03005KT 9999 SCT030 TX28/3016Z TN18/0109Z
TEMPO 3015/3018 35010KT SHRA BKN030 FEW040TCU
TEMPO 3018/3024 30012KT 8000 TSRA BKN020 FEW040CB
BECMG 0100/0102 04005KT 6000 SCT010
RMK PGL

Example: see airport list